createdAt,value
2023-05-22T00:01:57.703Z,15.40
2023-05-22T00:04:29.874Z,15.30
2023-05-22T00:06:56.993Z,15.30
2023-05-22T00:09:24.518Z,15.30
2023-05-22T00:11:51.652Z,15.20
2023-05-22T00:14:18.724Z,15.20
2023-05-22T00:16:48.247Z,15.20
2023-05-22T00:19:16.659Z,15.10
2023-05-22T00:21:44.054Z,15.10
2023-05-22T00:24:11.092Z,15.00
2023-05-22T00:26:38.144Z,15.00
2023-05-22T00:29:08.354Z,15.00
2023-05-22T00:31:35.444Z,15.00
2023-05-22T00:34:02.605Z,14.90
2023-05-22T00:36:29.665Z,14.90
2023-05-22T00:38:56.703Z,14.90
2023-05-22T00:41:23.717Z,14.90
2023-05-22T00:43:51.221Z,14.80
2023-05-22T00:46:21.449Z,14.80
2023-05-22T00:48:49.164Z,14.80
2023-05-22T00:51:16.258Z,14.80
2023-05-22T00:53:43.376Z,14.70
2023-05-22T00:56:10.557Z,14.70
2023-05-22T00:58:37.852Z,14.70
2023-05-22T01:01:07.556Z,14.60
2023-05-22T01:03:34.962Z,14.60
2023-05-22T01:06:02.169Z,14.60
2023-05-22T01:08:29.205Z,14.50
2023-05-22T01:10:57.669Z,14.50
2023-05-22T01:13:28.854Z,14.40
2023-05-22T01:15:55.929Z,14.40
2023-05-22T01:18:26.226Z,14.40
2023-05-22T01:20:55.063Z,14.40
2023-05-22T01:23:41.289Z,14.30
2023-05-22T01:26:27.025Z,14.30
2023-05-22T01:29:00.134Z,14.20
2023-05-22T01:31:27.230Z,14.30
2023-05-22T01:33:57.982Z,14.30
2023-05-22T01:36:26.202Z,14.20
2023-05-22T01:38:53.378Z,14.20
2023-05-22T01:41:21.266Z,14.20
2023-05-22T01:43:48.277Z,14.10
2023-05-22T01:46:15.404Z,14.10
2023-05-22T01:48:42.454Z,14.00
2023-05-22T01:51:12.212Z,14.00
2023-05-22T01:53:59.487Z,14.00
2023-05-22T01:56:30.746Z,14.00
2023-05-22T01:59:01.512Z,13.90
2023-05-22T02:01:28.928Z,13.90
2023-05-22T02:03:57.192Z,13.90
2023-05-22T02:06:28.195Z,13.90
2023-05-22T02:08:55.349Z,13.80
2023-05-22T02:11:22.524Z,13.80
2023-05-22T02:13:49.666Z,13.80
2023-05-22T02:16:16.797Z,13.80
2023-05-22T02:18:46.553Z,13.80
2023-05-22T02:21:13.680Z,13.70
2023-05-22T02:23:40.775Z,13.70
2023-05-22T02:26:08.070Z,13.70
2023-05-22T02:28:35.329Z,13.70
2023-05-22T02:31:03.788Z,13.60
2023-05-22T02:33:30.917Z,13.60
2023-05-22T02:35:58.054Z,13.50
2023-05-22T02:38:25.152Z,13.50
2023-05-22T02:40:52.506Z,13.50
2023-05-22T02:43:19.500Z,13.40
2023-05-22T02:45:46.681Z,13.40
2023-05-22T02:48:13.860Z,13.40
2023-05-22T02:50:41.156Z,13.40
2023-05-22T02:53:09.563Z,13.40
2023-05-22T02:55:36.684Z,13.30
2023-05-22T02:58:03.776Z,13.30
2023-05-22T03:00:31.195Z,13.30
2023-05-22T03:02:58.297Z,13.30
2023-05-22T03:05:25.582Z,13.30
2023-05-22T03:07:52.868Z,13.20
2023-05-22T03:10:20.001Z,13.20
2023-05-22T03:12:47.997Z,13.10
2023-05-22T03:15:15.360Z,13.10
2023-05-22T03:17:43.693Z,13.10
2023-05-22T03:20:11.099Z,13.00
2023-05-22T03:22:38.188Z,13.00
2023-05-22T03:25:07.236Z,13.00
2023-05-22T03:27:34.232Z,13.00
2023-05-22T03:30:05.032Z,12.90
2023-05-22T03:32:37.314Z,12.90
2023-05-22T03:35:06.081Z,12.90
2023-05-22T03:37:33.368Z,12.90
2023-05-22T03:40:00.570Z,12.80
2023-05-22T03:42:30.703Z,12.80
2023-05-22T03:44:58.124Z,12.80
2023-05-22T03:47:26.143Z,12.80
2023-05-22T03:49:53.196Z,12.70
2023-05-22T03:52:22.028Z,12.70
2023-05-22T03:54:49.036Z,12.70
2023-05-22T03:57:16.436Z,12.70
2023-05-22T03:59:43.510Z,12.70
2023-05-22T04:02:13.006Z,12.60
2023-05-22T04:04:40.155Z,12.60
2023-05-22T04:07:08.257Z,12.60
2023-05-22T04:09:35.626Z,12.60
2023-05-22T04:12:03.521Z,12.50
2023-05-22T04:14:30.590Z,12.50
2023-05-22T04:16:57.680Z,12.50
2023-05-22T04:19:24.972Z,12.50
2023-05-22T04:21:52.462Z,12.50
2023-05-22T04:24:19.587Z,12.50
2023-05-22T04:26:46.639Z,12.50
2023-05-22T04:29:14.464Z,12.60
2023-05-22T04:31:42.855Z,12.60
2023-05-22T04:34:15.027Z,12.60
2023-05-22T04:36:44.981Z,12.50
2023-05-22T04:39:13.777Z,12.60
2023-05-22T04:41:40.901Z,12.50
2023-05-22T04:44:08.090Z,12.60
2023-05-22T04:46:35.820Z,12.60
2023-05-22T04:49:03.222Z,12.60
2023-05-22T04:51:34.798Z,12.60
2023-05-22T04:54:01.928Z,12.60
2023-05-22T04:56:36.275Z,12.70
2023-05-22T04:59:05.415Z,12.70
2023-05-22T05:01:34.914Z,12.80
2023-05-22T05:04:03.682Z,12.80
2023-05-22T05:06:30.973Z,12.90
2023-05-22T05:08:58.058Z,12.90
2023-05-22T05:11:25.943Z,12.90
2023-05-22T05:13:53.021Z,13.00
2023-05-22T05:16:20.068Z,13.10
2023-05-22T05:18:47.283Z,13.20
2023-05-22T05:21:14.329Z,13.30
2023-05-22T05:23:41.681Z,13.40
2023-05-22T05:26:08.704Z,13.50
2023-05-22T05:28:35.755Z,13.70
2023-05-22T05:31:03.195Z,13.80
2023-05-22T05:33:48.821Z,14.00
2023-05-22T05:36:28.194Z,14.10
2023-05-22T05:38:56.656Z,14.20
2023-05-22T05:41:24.043Z,14.30
2023-05-22T05:43:59.935Z,14.50
2023-05-22T05:46:29.778Z,14.60
2023-05-22T05:48:57.846Z,14.70
2023-05-22T05:51:25.184Z,14.80
2023-05-22T05:53:53.151Z,14.90
2023-05-22T05:56:21.556Z,15.00
2023-05-22T05:58:48.898Z,15.10
2023-05-22T06:01:33.636Z,15.10
2023-05-22T06:04:03.317Z,15.20
2023-05-22T06:06:39.304Z,15.30
2023-05-22T06:09:06.595Z,15.40
2023-05-22T06:11:39.114Z,15.50
2023-05-22T06:14:07.341Z,15.50
2023-05-22T06:16:34.826Z,15.60
2023-05-22T06:19:02.001Z,15.70
2023-05-22T06:21:29.200Z,15.70
2023-05-22T06:23:56.360Z,15.80
2023-05-22T06:26:25.834Z,15.90
2023-05-22T06:28:54.082Z,16.00
2023-05-22T06:31:22.663Z,16.10
2023-05-22T06:33:51.863Z,16.20
2023-05-22T06:36:20.929Z,16.30
2023-05-22T06:38:49.399Z,16.30
2023-05-22T06:41:36.420Z,16.40
2023-05-22T06:44:06.341Z,16.50
2023-05-22T06:46:38.555Z,16.60
2023-05-22T06:49:06.445Z,16.70
2023-05-22T06:51:43.203Z,16.70
2023-05-22T06:54:13.862Z,16.80
2023-05-22T06:56:43.434Z,16.80
2023-05-22T06:59:15.601Z,16.90
2023-05-22T07:01:48.906Z,17.00
2023-05-22T07:04:20.839Z,17.00
2023-05-22T07:06:56.063Z,17.10
2023-05-22T07:09:24.121Z,17.30
2023-05-22T07:11:51.278Z,17.30
2023-05-22T07:14:18.379Z,17.40
2023-05-22T07:16:46.272Z,17.40
2023-05-22T07:19:17.045Z,17.50
2023-05-22T07:21:44.326Z,17.60
2023-05-22T07:24:14.129Z,17.70
2023-05-22T07:26:46.231Z,17.80
2023-05-22T07:29:16.869Z,17.80
2023-05-22T07:31:47.382Z,17.80
2023-05-22T07:34:14.541Z,17.90
2023-05-22T07:36:42.340Z,17.90
2023-05-22T07:39:09.649Z,18.00
2023-05-22T07:41:40.272Z,18.10
2023-05-22T07:44:09.798Z,18.10
2023-05-22T07:46:38.672Z,18.10
2023-05-22T07:49:19.498Z,18.20
2023-05-22T07:51:47.094Z,18.30
2023-05-22T07:54:15.870Z,18.40
2023-05-22T07:56:45.665Z,18.40
2023-05-22T07:59:13.365Z,18.50
2023-05-22T08:01:41.638Z,18.60
2023-05-22T08:04:09.059Z,18.60
2023-05-22T08:06:36.376Z,18.70
2023-05-22T08:09:04.617Z,18.70
2023-05-22T08:11:32.046Z,18.70
2023-05-22T08:13:59.163Z,18.80
2023-05-22T08:16:26.323Z,18.80
2023-05-22T08:18:53.582Z,18.90
2023-05-22T08:21:20.678Z,19.00
2023-05-22T08:23:47.771Z,19.10
2023-05-22T08:26:15.008Z,19.20
2023-05-22T08:28:44.208Z,19.20
2023-05-22T08:31:11.711Z,19.20
2023-05-22T08:33:39.184Z,19.20
2023-05-22T08:36:06.386Z,19.30
2023-05-22T08:38:33.543Z,19.40
2023-05-22T08:41:00.588Z,19.50
2023-05-22T08:43:28.428Z,19.60
2023-05-22T08:46:05.059Z,19.70
2023-05-22T08:48:32.403Z,19.80
2023-05-22T08:51:03.179Z,19.90
2023-05-22T08:53:31.441Z,19.90
2023-05-22T08:55:58.458Z,20.00
2023-05-22T08:58:25.575Z,20.00
2023-05-22T09:00:53.003Z,20.00
2023-05-22T09:03:21.496Z,20.00
2023-05-22T09:05:49.393Z,20.00
2023-05-22T09:08:20.859Z,20.10
2023-05-22T09:10:48.555Z,20.20
2023-05-22T09:13:28.741Z,20.20
2023-05-22T09:15:59.741Z,20.30
2023-05-22T09:18:27.058Z,20.40
2023-05-22T09:20:54.888Z,20.50
2023-05-22T09:23:22.302Z,20.50
2023-05-22T09:25:49.394Z,20.60
2023-05-22T09:28:16.449Z,20.70
2023-05-22T09:30:43.695Z,20.70
2023-05-22T09:33:12.820Z,20.80
2023-05-22T09:35:39.948Z,20.80
2023-05-22T09:38:07.249Z,20.90
2023-05-22T09:40:35.375Z,20.90
2023-05-22T09:43:04.157Z,21.00
2023-05-22T09:45:31.148Z,21.00
2023-05-22T09:47:58.212Z,21.10
2023-05-22T09:50:25.353Z,21.10
2023-05-22T09:52:52.631Z,21.20
2023-05-22T09:55:20.110Z,21.30
2023-05-22T09:57:49.479Z,21.40
2023-05-22T10:00:19.605Z,21.40
2023-05-22T10:02:48.086Z,21.40
2023-05-22T10:05:22.010Z,21.40
2023-05-22T10:07:50.495Z,21.40
2023-05-22T10:10:24.653Z,21.40
2023-05-22T10:12:53.909Z,21.40
2023-05-22T10:15:21.057Z,21.40
2023-05-22T10:17:48.491Z,21.40
2023-05-22T10:20:15.806Z,21.50
2023-05-22T10:22:43.000Z,21.50
2023-05-22T10:25:11.101Z,21.60
2023-05-22T10:27:38.344Z,21.60
2023-05-22T10:30:11.346Z,21.70
2023-05-22T10:32:52.656Z,21.80
2023-05-22T10:35:22.721Z,21.80
2023-05-22T10:37:59.420Z,21.80
2023-05-22T10:40:29.156Z,21.90
2023-05-22T10:42:56.981Z,22.00
2023-05-22T10:45:25.583Z,22.00
2023-05-22T10:48:03.305Z,22.10
2023-05-22T10:50:30.518Z,22.10
2023-05-22T10:53:16.558Z,22.10
2023-05-22T10:55:50.777Z,22.10
2023-05-22T10:58:17.976Z,22.20
2023-05-22T11:00:45.040Z,22.20
2023-05-22T11:03:17.831Z,22.20
2023-05-22T11:05:46.146Z,22.30
2023-05-22T11:08:35.075Z,22.40
2023-05-22T11:11:09.833Z,22.40
2023-05-22T11:13:36.866Z,22.50
2023-05-22T11:16:08.434Z,22.50
2023-05-22T11:18:35.624Z,22.50
2023-05-22T11:21:03.776Z,22.60
2023-05-22T11:23:33.169Z,22.50
2023-05-22T11:26:16.696Z,22.60
2023-05-22T11:28:43.782Z,22.80
2023-05-22T11:31:10.816Z,22.80
2023-05-22T11:33:37.890Z,22.90
2023-05-22T11:36:04.907Z,22.80
2023-05-22T11:38:33.030Z,22.90
2023-05-22T11:41:00.080Z,22.90
2023-05-22T11:43:32.956Z,23.00
2023-05-22T11:46:10.336Z,23.00
2023-05-22T11:48:40.139Z,23.10
2023-05-22T11:51:07.209Z,23.10
2023-05-22T11:53:34.457Z,23.10
2023-05-22T11:56:04.908Z,23.10
2023-05-22T11:58:32.126Z,23.10
2023-05-22T12:01:00.285Z,23.10
2023-05-22T12:03:27.712Z,23.10
2023-05-22T12:05:55.241Z,23.10
2023-05-22T12:08:22.670Z,23.20
2023-05-22T12:10:49.826Z,23.20
2023-05-22T12:13:26.814Z,23.30
2023-05-22T12:15:54.816Z,23.30
2023-05-22T12:18:24.300Z,23.40
2023-05-22T12:20:52.066Z,23.40
2023-05-22T12:23:22.740Z,23.50
2023-05-22T12:25:56.907Z,23.60
2023-05-22T12:28:23.904Z,23.60
2023-05-22T12:30:54.718Z,23.60
2023-05-22T12:33:25.851Z,23.60
2023-05-22T12:35:52.953Z,23.60
2023-05-22T12:38:23.133Z,23.70
2023-05-22T12:40:50.759Z,23.70
2023-05-22T12:43:17.886Z,23.80
2023-05-22T12:45:44.903Z,23.90
2023-05-22T12:48:12.230Z,23.90
2023-05-22T12:50:39.601Z,24.00
2023-05-22T12:53:06.859Z,24.00
2023-05-22T12:55:34.657Z,24.10
2023-05-22T12:58:01.818Z,24.10
2023-05-22T13:00:28.932Z,24.10
2023-05-22T13:02:57.380Z,24.10
2023-05-22T13:05:24.699Z,24.10
2023-05-22T13:07:52.840Z,24.10
2023-05-22T13:10:19.892Z,24.10
2023-05-22T13:12:48.429Z,24.10
2023-05-22T13:15:16.012Z,24.20
2023-05-22T13:17:43.156Z,24.20
2023-05-22T13:20:10.582Z,24.20
2023-05-22T13:22:37.817Z,24.20
2023-05-22T13:25:05.335Z,24.30
2023-05-22T13:27:33.926Z,24.30
2023-05-22T13:30:01.158Z,24.30
2023-05-22T13:32:28.175Z,24.30
2023-05-22T13:34:55.249Z,24.20
2023-05-22T13:37:22.437Z,24.20
2023-05-22T13:39:49.697Z,24.20
2023-05-22T13:42:16.740Z,24.20
2023-05-22T13:44:43.754Z,24.20
2023-05-22T13:47:11.113Z,24.20
2023-05-22T13:49:38.459Z,24.20
2023-05-22T13:52:05.572Z,24.20
2023-05-22T13:54:32.830Z,24.20
2023-05-22T13:57:02.176Z,24.20
2023-05-22T13:59:29.612Z,24.20
2023-05-22T14:01:56.937Z,24.20
2023-05-22T14:04:23.963Z,24.30
2023-05-22T14:06:51.033Z,24.30
2023-05-22T14:09:18.331Z,24.30
2023-05-22T14:11:45.463Z,24.30
2023-05-22T14:14:12.511Z,24.30
2023-05-22T14:16:39.804Z,24.30
2023-05-22T14:19:06.840Z,24.30
2023-05-22T14:21:33.852Z,24.30
2023-05-22T14:24:02.540Z,24.40
2023-05-22T14:26:29.562Z,24.30
2023-05-22T14:28:56.776Z,24.30
2023-05-22T14:31:23.851Z,24.30
2023-05-22T14:33:50.936Z,24.30
2023-05-22T14:36:18.000Z,24.30
2023-05-22T14:38:45.027Z,24.30
2023-05-22T14:41:12.284Z,24.20
2023-05-22T14:43:39.435Z,24.20
2023-05-22T14:46:06.739Z,24.20
2023-05-22T14:48:33.779Z,24.20
2023-05-22T14:51:00.892Z,24.20
2023-05-22T14:53:27.954Z,24.20
2023-05-22T14:55:55.087Z,24.20
2023-05-22T14:58:22.105Z,24.20
2023-05-22T15:00:49.321Z,24.20
2023-05-22T15:03:16.810Z,24.20
2023-05-22T15:05:43.878Z,24.20
2023-05-22T15:08:11.107Z,24.10
2023-05-22T15:10:38.139Z,24.10
2023-05-22T15:13:05.498Z,24.10
2023-05-22T15:15:32.855Z,24.00
2023-05-22T15:18:02.566Z,24.00
2023-05-22T15:20:29.743Z,24.00
2023-05-22T15:22:57.370Z,24.00
2023-05-22T15:25:24.378Z,24.00
2023-05-22T15:27:51.478Z,24.00
2023-05-22T15:30:20.143Z,24.00
2023-05-22T15:32:48.588Z,24.00
2023-05-22T15:35:15.857Z,24.00
2023-05-22T15:37:42.868Z,24.00
2023-05-22T15:40:11.174Z,23.90
2023-05-22T15:42:38.395Z,23.80
2023-05-22T15:45:05.796Z,23.80
2023-05-22T15:47:32.899Z,23.70
2023-05-22T15:50:00.055Z,23.70
2023-05-22T15:52:27.180Z,23.70
2023-05-22T15:54:56.404Z,23.60
2023-05-22T15:57:26.181Z,23.50
2023-05-22T15:59:53.179Z,23.30
2023-05-22T16:02:20.582Z,23.20
2023-05-22T16:04:48.526Z,23.00
2023-05-22T16:07:15.665Z,22.90
2023-05-22T16:09:43.325Z,22.90
2023-05-22T16:12:10.507Z,22.90
2023-05-22T16:14:38.758Z,22.90
2023-05-22T16:17:07.161Z,22.90
2023-05-22T16:19:34.458Z,22.90
2023-05-22T16:22:01.903Z,22.90
2023-05-22T16:24:32.256Z,22.90
2023-05-22T16:26:59.408Z,22.90
2023-05-22T16:29:26.557Z,22.90
2023-05-22T16:31:53.628Z,22.90
2023-05-22T16:34:20.758Z,22.90
2023-05-22T16:36:47.814Z,22.90
2023-05-22T16:39:15.846Z,23.00
2023-05-22T16:41:42.873Z,23.00
2023-05-22T16:44:09.903Z,22.90
2023-05-22T16:46:37.001Z,22.90
2023-05-22T16:49:04.037Z,22.90
2023-05-22T16:51:31.141Z,22.90
2023-05-22T16:53:58.176Z,22.90
2023-05-22T16:56:26.192Z,22.90
2023-05-22T16:58:53.242Z,22.80
2023-05-22T17:01:21.937Z,22.80
2023-05-22T17:03:49.754Z,22.80
2023-05-22T17:06:19.475Z,22.80
2023-05-22T17:08:47.907Z,22.80
2023-05-22T17:11:15.028Z,22.70
2023-05-22T17:13:42.070Z,22.70
2023-05-22T17:16:09.155Z,22.70
2023-05-22T17:18:36.644Z,22.60
2023-05-22T17:21:04.438Z,22.60
2023-05-22T17:23:31.622Z,22.60
2023-05-22T17:25:58.899Z,22.60
2023-05-22T17:28:26.553Z,22.60
2023-05-22T17:30:54.260Z,22.50
2023-05-22T17:33:21.334Z,22.50
2023-05-22T17:35:48.485Z,22.50
2023-05-22T17:38:15.550Z,22.50
2023-05-22T17:40:46.038Z,22.40
2023-05-22T17:43:13.528Z,22.40
2023-05-22T17:45:41.421Z,22.30
2023-05-22T17:48:08.716Z,22.20
2023-05-22T17:50:35.952Z,22.20
2023-05-22T17:53:03.141Z,22.20
2023-05-22T17:55:30.308Z,22.10
2023-05-22T17:57:57.641Z,22.10
2023-05-22T18:00:24.681Z,22.10
2023-05-22T18:02:52.061Z,22.00
2023-05-22T18:05:19.207Z,22.00
2023-05-22T18:07:46.263Z,21.90
2023-05-22T18:10:13.398Z,21.90
2023-05-22T18:12:40.766Z,21.80
2023-05-22T18:15:10.550Z,21.80
2023-05-22T18:17:38.106Z,21.80
2023-05-22T18:20:08.419Z,21.70
2023-05-22T18:22:37.113Z,21.70
2023-05-22T18:25:04.680Z,21.60
2023-05-22T18:27:32.159Z,21.60
2023-05-22T18:29:59.420Z,21.50
2023-05-22T18:32:26.526Z,21.50
2023-05-22T18:34:53.642Z,21.40
2023-05-22T18:37:20.654Z,21.40
2023-05-22T18:39:47.767Z,21.40
2023-05-22T18:42:14.900Z,21.20
2023-05-22T18:44:41.936Z,21.20
2023-05-22T18:47:09.166Z,21.10
2023-05-22T18:49:36.303Z,21.10
2023-05-22T18:52:03.348Z,21.00
2023-05-22T18:54:30.420Z,21.00
2023-05-22T18:56:57.440Z,20.90
2023-05-22T18:59:24.571Z,20.90
2023-05-22T19:01:51.615Z,20.80
2023-05-22T19:04:18.741Z,20.70
2023-05-22T19:06:45.899Z,20.70
2023-05-22T19:09:13.477Z,20.60
2023-05-22T19:11:40.729Z,20.60
2023-05-22T19:14:07.788Z,20.50
2023-05-22T19:16:35.053Z,20.50
2023-05-22T19:19:02.585Z,20.40
2023-05-22T19:21:29.604Z,20.40
2023-05-22T19:23:56.763Z,20.30
2023-05-22T19:26:23.758Z,20.30
2023-05-22T19:28:50.842Z,20.20
2023-05-22T19:31:18.393Z,20.20
2023-05-22T19:33:45.674Z,20.10
2023-05-22T19:36:13.062Z,20.10
2023-05-22T19:38:40.196Z,20.10
2023-05-22T19:41:07.462Z,20.00
2023-05-22T19:43:34.677Z,20.00
2023-05-22T19:46:02.004Z,20.00
2023-05-22T19:48:31.402Z,19.90
2023-05-22T19:50:58.489Z,19.90
2023-05-22T19:53:25.735Z,19.80
2023-05-22T19:55:52.746Z,19.80
2023-05-22T19:58:19.855Z,19.80
2023-05-22T20:00:48.479Z,19.80
2023-05-22T20:03:16.004Z,19.80
2023-05-22T20:05:43.078Z,19.80
2023-05-22T20:08:10.283Z,19.80
2023-05-22T20:10:37.838Z,19.80
2023-05-22T20:13:05.170Z,19.70
2023-05-22T20:15:32.892Z,19.60
2023-05-22T20:18:02.392Z,19.60
2023-05-22T20:20:29.594Z,19.50
2023-05-22T20:22:57.881Z,19.50
2023-05-22T20:25:25.136Z,19.40
2023-05-22T20:27:52.136Z,19.40
2023-05-22T20:30:19.262Z,19.40
2023-05-22T20:32:46.934Z,19.30
2023-05-22T20:35:14.229Z,19.30
2023-05-22T20:37:42.349Z,19.20
2023-05-22T20:40:09.795Z,19.10
2023-05-22T20:42:37.525Z,19.10
2023-05-22T20:45:05.082Z,19.10
2023-05-22T20:47:32.204Z,19.10
2023-05-22T20:49:59.451Z,19.00
2023-05-22T20:52:30.474Z,19.00
2023-05-22T20:54:57.966Z,19.00
2023-05-22T20:57:25.205Z,19.00
2023-05-22T20:59:52.783Z,18.90
2023-05-22T21:02:19.898Z,18.90
2023-05-22T21:04:47.255Z,18.80
2023-05-22T21:07:14.329Z,18.80
2023-05-22T21:09:41.601Z,18.80
2023-05-22T21:12:08.622Z,18.80
2023-05-22T21:14:35.816Z,18.70
2023-05-22T21:17:02.939Z,18.60
2023-05-22T21:19:30.062Z,18.60
2023-05-22T21:21:57.121Z,18.50
2023-05-22T21:24:24.290Z,18.50
2023-05-22T21:26:51.551Z,18.50
2023-05-22T21:29:18.578Z,18.50
2023-05-22T21:31:45.707Z,18.40
2023-05-22T21:34:13.018Z,18.40
2023-05-22T21:36:40.553Z,18.30
2023-05-22T21:39:07.569Z,18.30
2023-05-22T21:41:34.693Z,18.30
2023-05-22T21:44:01.811Z,18.20
2023-05-22T21:46:28.930Z,18.20
2023-05-22T21:48:56.105Z,18.10
2023-05-22T21:51:23.112Z,18.10
2023-05-22T21:53:50.135Z,18.00
2023-05-22T21:56:17.407Z,18.00
2023-05-22T21:58:44.469Z,17.90
2023-05-22T22:01:11.493Z,18.00
2023-05-22T22:03:39.010Z,17.90
2023-05-22T22:06:06.246Z,17.80
2023-05-22T22:08:33.442Z,17.80
2023-05-22T22:11:00.574Z,17.80
2023-05-22T22:13:27.651Z,17.70
2023-05-22T22:15:54.915Z,17.70
2023-05-22T22:18:22.049Z,17.70
2023-05-22T22:20:54.140Z,17.70
2023-05-22T22:23:21.818Z,17.60
2023-05-22T22:25:48.928Z,17.60
2023-05-22T22:28:16.126Z,17.60
2023-05-22T22:30:43.198Z,17.50
2023-05-22T22:33:11.511Z,17.50
2023-05-22T22:35:39.477Z,17.40
2023-05-22T22:38:06.739Z,17.40
2023-05-22T22:40:33.756Z,17.40
2023-05-22T22:43:00.779Z,17.40
2023-05-22T22:45:27.782Z,17.40
2023-05-22T22:47:56.314Z,17.40
2023-05-22T22:50:26.413Z,17.40
2023-05-22T22:52:53.540Z,17.40
2023-05-22T22:55:21.112Z,17.40
2023-05-22T22:57:49.877Z,17.40
2023-05-22T23:00:17.720Z,17.30
2023-05-22T23:02:44.888Z,17.30
2023-05-22T23:05:12.227Z,17.30
2023-05-22T23:07:39.449Z,17.30
2023-05-22T23:10:07.013Z,17.30
2023-05-22T23:12:36.362Z,17.20
2023-05-22T23:15:03.957Z,17.20
2023-05-22T23:17:31.098Z,17.20
2023-05-22T23:19:58.268Z,17.20
2023-05-22T23:22:25.387Z,17.20
2023-05-22T23:24:52.408Z,17.20
2023-05-22T23:27:19.496Z,17.20
2023-05-22T23:29:46.524Z,17.20
2023-05-22T23:32:14.875Z,17.20
2023-05-22T23:34:42.384Z,17.10
2023-05-22T23:37:09.537Z,17.10
2023-05-22T23:39:36.589Z,17.10
2023-05-22T23:42:03.771Z,17.10
2023-05-22T23:44:30.990Z,17.10
2023-05-22T23:46:58.211Z,17.10
2023-05-22T23:49:26.275Z,17.10
2023-05-22T23:51:53.333Z,17.10
2023-05-22T23:54:20.362Z,17.10
2023-05-22T23:56:47.427Z,17.00
2023-05-22T23:59:14.512Z,17.00
